createdAt,value
2023-01-20T00:00:07.314Z,16.43
2023-01-20T00:02:34.226Z,16.80
2023-01-20T00:05:01.217Z,16.13
2023-01-20T00:07:28.151Z,14.50
2023-01-20T00:09:56.407Z,15.83
2023-01-20T00:12:23.361Z,14.27
2023-01-20T00:14:50.186Z,15.33
2023-01-20T00:17:17.083Z,15.07
2023-01-20T00:19:43.958Z,13.97
2023-01-20T00:22:10.781Z,13.27
2023-01-20T00:24:37.659Z,13.17
2023-01-20T00:27:06.153Z,14.30
2023-01-20T00:29:33.066Z,14.60
2023-01-20T00:31:59.885Z,13.17
2023-01-20T00:34:26.812Z,14.57
2023-01-20T00:36:53.663Z,14.00
2023-01-20T00:39:20.679Z,15.80
2023-01-20T00:41:47.497Z,15.40
2023-01-20T00:44:15.727Z,14.47
2023-01-20T00:46:42.691Z,14.10
2023-01-20T00:49:10.085Z,13.37
2023-01-20T00:51:37.026Z,14.50
2023-01-20T00:54:04.208Z,13.60
2023-01-20T00:56:31.107Z,15.60
2023-01-20T00:58:57.948Z,14.50
2023-01-20T01:01:26.199Z,14.13
2023-01-20T01:03:54.394Z,13.90
2023-01-20T01:06:21.308Z,15.63
2023-01-20T01:08:48.133Z,16.57
2023-01-20T01:11:15.128Z,16.20
2023-01-20T01:13:42.138Z,15.20
2023-01-20T01:16:12.541Z,14.50
2023-01-20T01:18:40.958Z,15.33
2023-01-20T01:21:09.582Z,15.43
2023-01-20T01:23:36.504Z,15.63
2023-01-20T01:26:03.478Z,14.63
2023-01-20T01:28:30.454Z,14.00
2023-01-20T01:31:00.755Z,14.87
2023-01-20T01:33:27.942Z,15.10
2023-01-20T01:35:57.391Z,14.10
2023-01-20T01:38:24.755Z,15.53
2023-01-20T01:40:52.873Z,16.27
2023-01-20T01:43:23.766Z,18.93
2023-01-20T01:45:50.737Z,15.80
2023-01-20T01:48:20.383Z,16.63
2023-01-20T01:50:51.794Z,15.10
2023-01-20T01:53:42.784Z,16.37
2023-01-20T01:56:11.469Z,17.40
2023-01-20T01:58:41.897Z,15.60
2023-01-20T02:01:09.983Z,15.47
2023-01-20T02:03:44.242Z,18.77
2023-01-20T02:06:12.709Z,19.57
2023-01-20T02:08:42.072Z,14.77
2023-01-20T02:11:08.870Z,14.77
2023-01-20T02:13:36.401Z,13.83
2023-01-20T02:16:11.321Z,13.93
2023-01-20T02:18:51.003Z,16.17
2023-01-20T02:22:00.402Z,17.20
2023-01-20T02:24:56.496Z,15.60
2023-01-20T02:27:32.643Z,13.73
2023-01-20T02:30:34.654Z,14.90
2023-01-20T02:33:09.604Z,14.63
2023-01-20T02:35:40.684Z,14.30
2023-01-20T02:38:16.114Z,19.57
2023-01-20T02:40:50.347Z,13.97
2023-01-20T02:43:23.242Z,13.43
2023-01-20T02:45:58.730Z,16.47
2023-01-20T02:48:35.175Z,15.40
2023-01-20T02:51:07.700Z,15.87
2023-01-20T02:53:40.365Z,14.03
2023-01-20T02:56:09.441Z,18.37
2023-01-20T02:58:42.161Z,16.47
2023-01-20T03:01:13.480Z,16.17
2023-01-20T03:03:44.867Z,22.00
2023-01-20T03:06:17.819Z,21.47
2023-01-20T03:08:46.648Z,17.40
2023-01-20T03:11:13.558Z,15.50
2023-01-20T03:13:44.655Z,21.53
2023-01-20T03:16:14.529Z,19.27
2023-01-20T03:18:42.856Z,16.17
2023-01-20T03:21:10.772Z,16.00
2023-01-20T03:23:41.989Z,16.27
2023-01-20T03:26:11.312Z,14.17
2023-01-20T03:28:38.253Z,15.53
2023-01-20T03:31:13.096Z,14.03
2023-01-20T03:33:40.048Z,13.90
2023-01-20T03:36:09.773Z,13.53
2023-01-20T03:38:36.889Z,14.50
2023-01-20T03:41:09.843Z,14.70
2023-01-20T03:43:43.540Z,14.53
2023-01-20T03:46:19.198Z,14.23
2023-01-20T03:48:50.893Z,14.90
2023-01-20T03:51:26.973Z,14.70
2023-01-20T03:53:59.694Z,13.33
2023-01-20T03:56:35.215Z,13.73
2023-01-20T03:59:03.576Z,14.50
2023-01-20T04:01:34.334Z,14.83
2023-01-20T04:04:03.103Z,13.83
2023-01-20T04:06:33.672Z,14.27
2023-01-20T04:09:04.743Z,15.33
2023-01-20T04:11:31.887Z,14.53
2023-01-20T04:13:58.931Z,14.40
2023-01-20T04:16:26.529Z,14.93
2023-01-20T04:18:54.136Z,14.90
2023-01-20T04:21:28.412Z,14.63
2023-01-20T04:24:00.684Z,14.90
2023-01-20T04:26:27.525Z,14.53
2023-01-20T04:28:54.351Z,15.43
2023-01-20T04:31:30.028Z,14.07
2023-01-20T04:33:58.251Z,14.40
2023-01-20T04:36:25.155Z,14.20
2023-01-20T04:38:52.045Z,13.63
2023-01-20T04:41:20.450Z,13.83
2023-01-20T04:43:47.353Z,14.33
2023-01-20T04:46:15.407Z,13.93
2023-01-20T04:48:43.984Z,14.00
2023-01-20T04:51:10.929Z,13.47
2023-01-20T04:53:37.760Z,13.33
2023-01-20T04:56:05.235Z,13.87
2023-01-20T04:58:33.469Z,14.93
2023-01-20T05:01:01.780Z,13.20
2023-01-20T05:03:28.723Z,13.53
2023-01-20T05:05:55.579Z,13.40
2023-01-20T05:08:22.506Z,13.30
2023-01-20T05:10:49.473Z,13.63
2023-01-20T05:13:16.358Z,12.57
2023-01-20T05:15:44.678Z,13.00
2023-01-20T05:18:11.705Z,13.33
2023-01-20T05:20:38.554Z,14.90
2023-01-20T05:23:05.577Z,14.40
2023-01-20T05:25:32.509Z,14.03
2023-01-20T05:28:00.577Z,13.43
2023-01-20T05:30:27.798Z,14.57
2023-01-20T05:32:56.155Z,11.87
2023-01-20T05:35:23.177Z,12.40
2023-01-20T05:37:53.430Z,13.67
2023-01-20T05:40:20.626Z,14.47
2023-01-20T05:42:47.493Z,13.13
2023-01-20T05:45:14.735Z,13.67
2023-01-20T05:47:41.783Z,12.80
2023-01-20T05:50:11.462Z,14.80
2023-01-20T05:52:38.452Z,13.53
2023-01-20T05:55:05.919Z,14.80
2023-01-20T05:57:32.811Z,15.20
2023-01-20T05:59:59.641Z,13.93
2023-01-20T06:02:26.615Z,13.93
2023-01-20T06:04:53.533Z,14.80
2023-01-20T06:07:21.778Z,13.90
2023-01-20T06:09:48.676Z,14.30
2023-01-20T06:12:15.741Z,15.57
2023-01-20T06:14:42.569Z,13.73
2023-01-20T06:17:10.859Z,13.67
2023-01-20T06:19:37.689Z,14.70
2023-01-20T06:22:04.614Z,15.20
2023-01-20T06:24:32.829Z,15.10
2023-01-20T06:26:59.635Z,14.60
2023-01-20T06:29:26.612Z,14.43
2023-01-20T06:31:53.563Z,15.40
2023-01-20T06:34:20.398Z,15.37
2023-01-20T06:36:47.208Z,15.60
2023-01-20T06:39:14.163Z,16.07
2023-01-20T06:41:42.285Z,15.23
2023-01-20T06:44:09.175Z,15.30
2023-01-20T06:46:36.105Z,15.40
2023-01-20T06:49:02.992Z,14.67
2023-01-20T06:51:31.017Z,14.87
2023-01-20T06:53:58.084Z,15.87
2023-01-20T06:56:25.146Z,15.43
2023-01-20T06:58:53.514Z,14.67
2023-01-20T07:01:23.250Z,16.07
2023-01-20T07:03:50.444Z,15.53
2023-01-20T07:06:20.337Z,15.40
2023-01-20T07:08:47.325Z,16.10
2023-01-20T07:11:14.278Z,14.90
2023-01-20T07:13:41.280Z,15.20
2023-01-20T07:16:11.974Z,15.30
2023-01-20T07:18:40.483Z,15.70
2023-01-20T07:21:07.805Z,16.73
2023-01-20T07:23:34.729Z,18.30
2023-01-20T07:26:03.683Z,16.10
2023-01-20T07:28:31.155Z,15.23
2023-01-20T07:31:03.851Z,14.87
2023-01-20T07:33:32.552Z,15.37
2023-01-20T07:36:00.218Z,16.50
2023-01-20T07:38:27.396Z,15.57
2023-01-20T07:40:57.412Z,16.63
2023-01-20T07:43:24.393Z,18.10
2023-01-20T07:45:54.950Z,17.00
2023-01-20T07:48:21.874Z,16.43
2023-01-20T07:50:54.162Z,15.70
2023-01-20T07:53:21.074Z,15.63
2023-01-20T07:55:47.944Z,17.07
2023-01-20T07:58:14.820Z,15.37
2023-01-20T08:00:41.801Z,14.70
2023-01-20T08:03:08.669Z,14.57
2023-01-20T08:05:35.484Z,15.23
2023-01-20T08:08:03.776Z,14.73
2023-01-20T08:10:30.791Z,14.67
2023-01-20T08:12:58.423Z,16.20
2023-01-20T08:15:25.343Z,14.33
2023-01-20T08:17:53.764Z,15.30
2023-01-20T08:20:20.643Z,15.23
2023-01-20T08:22:47.540Z,15.77
2023-01-20T08:25:16.458Z,15.73
2023-01-20T08:27:43.741Z,13.90
2023-01-20T08:30:11.721Z,14.53
2023-01-20T08:32:38.525Z,14.73
2023-01-20T08:35:05.878Z,14.80
2023-01-20T08:37:35.481Z,14.77
2023-01-20T08:40:02.322Z,14.90
2023-01-20T08:42:30.495Z,15.27
2023-01-20T08:44:57.383Z,15.23
2023-01-20T08:47:24.278Z,14.47
2023-01-20T08:49:52.877Z,14.03
2023-01-20T08:52:20.381Z,14.70
2023-01-20T08:54:47.532Z,15.03
2023-01-20T08:57:15.970Z,14.10
2023-01-20T08:59:44.343Z,15.63
2023-01-20T09:02:11.613Z,15.80
2023-01-20T09:04:39.163Z,13.87
2023-01-20T09:07:06.103Z,15.80
2023-01-20T09:09:33.211Z,15.37
2023-01-20T09:12:00.082Z,15.80
2023-01-20T09:14:27.150Z,15.30
2023-01-20T09:16:55.800Z,14.17
2023-01-20T09:19:23.144Z,16.23
2023-01-20T09:21:50.043Z,14.67
2023-01-20T09:24:17.092Z,15.97
2023-01-20T09:26:44.903Z,16.87
2023-01-20T09:29:13.431Z,17.50
2023-01-20T09:31:44.328Z,17.83
2023-01-20T09:34:19.189Z,17.70
2023-01-20T09:36:49.305Z,17.20
2023-01-20T09:39:35.308Z,17.60
2023-01-20T09:42:34.128Z,17.70
2023-01-20T09:45:10.476Z,17.63
2023-01-20T09:47:43.634Z,19.83
2023-01-20T09:50:53.104Z,20.17
2023-01-20T09:53:35.718Z,18.77
2023-01-20T09:56:08.787Z,20.87
2023-01-20T09:58:42.125Z,20.60
2023-01-20T10:01:15.634Z,19.27
2023-01-20T10:03:49.548Z,21.10
2023-01-20T10:06:25.005Z,20.17
2023-01-20T10:09:05.469Z,21.57
2023-01-20T10:11:38.832Z,21.47
2023-01-20T10:14:13.357Z,29.03
2023-01-20T10:16:45.570Z,21.60
2023-01-20T10:19:18.603Z,21.63
2023-01-20T10:21:53.104Z,22.17
2023-01-20T10:24:24.460Z,22.83
2023-01-20T10:26:57.093Z,25.10
2023-01-20T10:29:31.206Z,22.00
2023-01-20T10:32:01.163Z,22.83
2023-01-20T10:34:34.433Z,21.90
2023-01-20T10:37:06.825Z,22.83
2023-01-20T10:39:40.775Z,24.07
2023-01-20T10:42:12.810Z,27.40
2023-01-20T10:44:40.214Z,24.37
2023-01-20T10:47:18.319Z,24.57
2023-01-20T10:50:13.055Z,23.03
2023-01-20T10:53:03.727Z,24.37
2023-01-20T10:55:43.339Z,22.37
2023-01-20T10:58:21.276Z,22.83
2023-01-20T11:00:50.875Z,20.30
2023-01-20T11:03:22.101Z,23.13
2023-01-20T11:05:51.738Z,24.47
2023-01-20T11:08:30.863Z,23.47
2023-01-20T11:11:00.122Z,22.90
2023-01-20T11:13:27.525Z,22.63
2023-01-20T11:15:59.100Z,23.30
2023-01-20T11:18:29.968Z,23.53
2023-01-20T11:21:00.930Z,23.80
2023-01-20T11:23:38.984Z,23.67
2023-01-20T11:26:10.153Z,22.33
2023-01-20T11:28:49.517Z,22.77
2023-01-20T11:31:17.066Z,23.23
2023-01-20T11:33:56.259Z,20.90
2023-01-20T11:36:27.613Z,19.83
2023-01-20T11:38:57.507Z,20.80
2023-01-20T11:41:26.482Z,22.53
2023-01-20T11:43:56.672Z,20.17
2023-01-20T11:46:27.688Z,23.03
2023-01-20T11:49:16.803Z,22.23
2023-01-20T11:51:50.014Z,20.33
2023-01-20T11:54:21.420Z,21.87
2023-01-20T11:56:52.039Z,21.73
2023-01-20T11:59:27.016Z,21.17
2023-01-20T12:02:01.598Z,21.93
2023-01-20T12:04:49.055Z,23.47
2023-01-20T12:07:21.433Z,24.50
2023-01-20T12:09:52.944Z,22.27
2023-01-20T12:12:27.801Z,22.43
2023-01-20T12:15:00.742Z,21.80
2023-01-20T12:17:38.562Z,22.77
2023-01-20T12:20:16.841Z,21.03
2023-01-20T12:22:55.226Z,21.47
2023-01-20T12:25:28.151Z,20.37
2023-01-20T12:27:58.056Z,19.20
2023-01-20T12:30:53.752Z,20.50
2023-01-20T12:33:23.901Z,19.47
2023-01-20T12:36:40.441Z,19.77
2023-01-20T12:39:33.378Z,20.17
2023-01-20T12:42:46.112Z,19.53
2023-01-20T12:45:25.513Z,20.20
2023-01-20T12:48:10.461Z,18.83
2023-01-20T12:50:52.863Z,18.27
2023-01-20T12:53:38.941Z,18.27
2023-01-20T12:56:16.788Z,17.93
2023-01-20T12:58:53.265Z,17.57
2023-01-20T13:01:50.639Z,16.07
2023-01-20T13:04:49.826Z,21.10
2023-01-20T13:07:48.639Z,18.27
2023-01-20T13:10:42.604Z,16.73
2023-01-20T13:13:23.537Z,15.93
2023-01-20T13:15:58.638Z,17.47
2023-01-20T13:18:35.374Z,16.30
2023-01-20T13:21:02.747Z,14.67
2023-01-20T13:23:34.335Z,15.87
2023-01-20T13:26:03.759Z,15.73
2023-01-20T13:28:31.370Z,15.37
2023-01-20T13:31:00.450Z,14.83
2023-01-20T13:33:33.882Z,14.70
2023-01-20T13:36:01.916Z,14.63
2023-01-20T13:38:31.003Z,14.30
2023-01-20T13:41:03.270Z,14.17
2023-01-20T13:43:37.060Z,14.87
2023-01-20T13:46:43.990Z,14.97
2023-01-20T13:49:28.449Z,14.63
2023-01-20T13:51:55.837Z,14.50
2023-01-20T13:54:52.694Z,14.90
2023-01-20T13:57:36.274Z,15.27
2023-01-20T14:00:18.155Z,14.90
2023-01-20T14:02:46.444Z,15.20
2023-01-20T14:05:30.255Z,15.33
2023-01-20T14:07:57.784Z,14.43
2023-01-20T14:10:28.628Z,16.40
2023-01-20T14:12:55.599Z,16.00
2023-01-20T14:15:38.672Z,16.13
2023-01-20T14:18:14.019Z,15.13
2023-01-20T14:20:42.662Z,15.63
2023-01-20T14:23:31.565Z,16.60
2023-01-20T14:26:00.745Z,15.50
2023-01-20T14:28:27.756Z,15.00
2023-01-20T14:31:15.188Z,16.33
2023-01-20T14:33:47.766Z,16.00
2023-01-20T14:36:19.087Z,15.43
2023-01-20T14:38:57.375Z,15.37
2023-01-20T14:41:31.511Z,15.90
2023-01-20T14:43:59.727Z,15.57
2023-01-20T14:46:28.293Z,15.10
2023-01-20T14:48:56.296Z,16.37
2023-01-20T14:51:24.835Z,15.20
2023-01-20T14:54:32.585Z,14.97
2023-01-20T14:57:02.390Z,14.70
2023-01-20T14:59:29.421Z,15.23
2023-01-20T15:02:02.446Z,14.60
2023-01-20T15:04:36.736Z,16.10
2023-01-20T15:07:05.565Z,15.30
2023-01-20T15:09:34.444Z,15.57
2023-01-20T15:12:42.396Z,15.80
2023-01-20T15:15:21.881Z,15.83
2023-01-20T15:18:20.470Z,16.83
2023-01-20T15:20:50.251Z,18.07
2023-01-20T15:23:23.750Z,18.13
2023-01-20T15:25:52.521Z,18.00
2023-01-20T15:28:27.037Z,17.80
2023-01-20T15:30:56.196Z,17.73
2023-01-20T15:33:23.653Z,16.93
2023-01-20T15:35:54.747Z,16.63
2023-01-20T15:38:23.016Z,16.73
2023-01-20T15:40:50.087Z,16.43
2023-01-20T15:43:17.980Z,16.10
2023-01-20T15:45:45.587Z,16.07
2023-01-20T15:48:15.621Z,16.27
2023-01-20T15:50:43.035Z,15.83
2023-01-20T15:53:12.516Z,15.00
2023-01-20T15:55:47.718Z,16.43
2023-01-20T15:58:26.585Z,14.83
2023-01-20T16:00:55.386Z,16.77
2023-01-20T16:03:22.566Z,16.87
2023-01-20T16:05:50.052Z,19.33
2023-01-20T16:08:18.007Z,18.60
2023-01-20T16:10:46.600Z,17.10
2023-01-20T16:13:13.947Z,17.10
2023-01-20T16:15:44.974Z,15.63
2023-01-20T16:18:13.683Z,16.43
2023-01-20T16:20:40.783Z,16.20
2023-01-20T16:23:07.947Z,15.53
2023-01-20T16:25:35.201Z,17.57
2023-01-20T16:28:13.754Z,16.50
2023-01-20T16:30:41.527Z,14.30
2023-01-20T16:33:16.311Z,17.17
2023-01-20T16:35:43.353Z,16.47
2023-01-20T16:38:15.605Z,16.83
2023-01-20T16:40:46.913Z,17.33
2023-01-20T16:43:15.410Z,16.50
2023-01-20T16:45:42.608Z,17.27
2023-01-20T16:48:09.866Z,17.63
2023-01-20T16:50:37.180Z,17.03
2023-01-20T16:53:04.107Z,17.13
2023-01-20T16:55:31.222Z,17.27
2023-01-20T16:57:58.161Z,16.83
2023-01-20T17:00:26.616Z,17.90
2023-01-20T17:02:53.810Z,18.03
2023-01-20T17:05:25.663Z,16.77
2023-01-20T17:07:53.643Z,17.30
2023-01-20T17:10:20.872Z,18.30
2023-01-20T17:12:49.001Z,16.10
2023-01-20T17:15:16.060Z,17.73
2023-01-20T17:17:48.241Z,16.87
2023-01-20T17:20:15.722Z,17.60
2023-01-20T17:22:43.289Z,16.63
2023-01-20T17:25:11.112Z,17.23
2023-01-20T17:27:38.331Z,16.60
2023-01-20T17:30:08.019Z,17.00
2023-01-20T17:32:35.281Z,17.63
2023-01-20T17:35:04.208Z,16.67
2023-01-20T17:37:31.458Z,17.70
2023-01-20T17:40:00.399Z,16.70
2023-01-20T17:42:27.329Z,17.37
2023-01-20T17:44:54.243Z,17.03
2023-01-20T17:47:21.318Z,17.23
2023-01-20T17:49:48.655Z,16.27
2023-01-20T17:52:20.066Z,17.93
2023-01-20T17:54:46.941Z,17.07
2023-01-20T17:57:13.997Z,16.67
2023-01-20T17:59:40.896Z,16.67
2023-01-20T18:02:10.941Z,16.97
2023-01-20T18:04:37.873Z,15.93
2023-01-20T18:07:04.990Z,15.77
2023-01-20T18:09:33.745Z,14.70
2023-01-20T18:12:01.753Z,15.60
2023-01-20T18:14:28.605Z,17.27
2023-01-20T18:16:55.821Z,17.47
2023-01-20T18:19:23.621Z,19.47
2023-01-20T18:21:51.508Z,18.23
2023-01-20T18:24:18.655Z,17.07
2023-01-20T18:26:46.871Z,17.83
2023-01-20T18:29:15.115Z,16.17
2023-01-20T18:31:42.435Z,13.90
2023-01-20T18:34:15.741Z,14.00
2023-01-20T18:36:48.524Z,12.37
2023-01-20T18:39:20.413Z,12.37
2023-01-20T18:41:49.417Z,14.03
2023-01-20T18:44:16.567Z,13.67
2023-01-20T18:46:43.696Z,12.83
2023-01-20T18:49:13.023Z,12.83
2023-01-20T18:51:41.630Z,13.07
2023-01-20T18:54:11.630Z,12.23
2023-01-20T18:56:38.904Z,14.93
2023-01-20T18:59:07.699Z,14.90
2023-01-20T19:01:37.068Z,14.37
2023-01-20T19:04:05.825Z,13.97
2023-01-20T19:06:36.841Z,14.93
2023-01-20T19:09:04.801Z,15.37
2023-01-20T19:11:34.265Z,14.17
2023-01-20T19:14:01.475Z,15.70
2023-01-20T19:16:32.941Z,15.37
2023-01-20T19:19:02.569Z,15.70
2023-01-20T19:21:32.383Z,15.77
2023-01-20T19:24:01.628Z,15.03
2023-01-20T19:26:28.967Z,15.40
2023-01-20T19:28:58.245Z,15.63
2023-01-20T19:31:25.354Z,15.47
2023-01-20T19:33:53.968Z,15.37
2023-01-20T19:36:21.354Z,16.33
2023-01-20T19:38:48.354Z,16.40
2023-01-20T19:41:17.637Z,14.63
2023-01-20T19:43:45.423Z,15.00
2023-01-20T19:46:14.561Z,14.87
2023-01-20T19:48:41.980Z,14.67
2023-01-20T19:51:12.557Z,14.93
2023-01-20T19:53:40.247Z,14.00
2023-01-20T19:56:09.621Z,12.90
2023-01-20T19:58:37.075Z,14.40
2023-01-20T20:01:07.944Z,13.33
2023-01-20T20:03:34.980Z,13.47
2023-01-20T20:06:02.210Z,13.63
2023-01-20T20:08:30.546Z,12.73
2023-01-20T20:10:57.467Z,14.10
2023-01-20T20:13:24.417Z,13.73
2023-01-20T20:15:59.975Z,12.57
2023-01-20T20:18:27.120Z,12.57
2023-01-20T20:20:54.041Z,11.97
2023-01-20T20:23:21.099Z,12.27
2023-01-20T20:25:51.145Z,10.00
2023-01-20T20:28:18.885Z,10.57
2023-01-20T20:30:45.959Z,11.57
2023-01-20T20:33:12.955Z,10.27
2023-01-20T20:35:39.907Z,10.10
2023-01-20T20:38:06.747Z,8.27
2023-01-20T20:40:34.651Z,9.23
2023-01-20T20:43:02.952Z,10.50
2023-01-20T20:45:30.253Z,10.40
2023-01-20T20:47:57.463Z,11.67
2023-01-20T20:50:25.159Z,10.90
2023-01-20T20:52:52.863Z,10.07
2023-01-20T20:55:20.008Z,7.73
2023-01-20T20:57:46.936Z,9.27
2023-01-20T21:00:17.430Z,9.27
2023-01-20T21:02:45.081Z,9.53
2023-01-20T21:05:12.009Z,10.83
2023-01-20T21:07:38.902Z,10.07
2023-01-20T21:10:06.762Z,9.73
2023-01-20T21:12:33.586Z,10.13
2023-01-20T21:15:00.514Z,10.87
2023-01-20T21:17:28.930Z,10.37
2023-01-20T21:19:55.823Z,10.53
2023-01-20T21:22:22.780Z,10.37
2023-01-20T21:24:49.799Z,10.37
2023-01-20T21:27:16.724Z,9.23
2023-01-20T21:29:44.425Z,10.30
2023-01-20T21:32:11.394Z,9.77
2023-01-20T21:34:39.807Z,10.50
2023-01-20T21:37:08.540Z,10.10
2023-01-20T21:39:35.401Z,10.70
2023-01-20T21:42:02.369Z,11.17
2023-01-20T21:44:29.395Z,11.40
2023-01-20T21:46:57.147Z,12.20
2023-01-20T21:49:43.188Z,13.80
2023-01-20T21:52:32.659Z,13.53
2023-01-20T21:55:00.028Z,13.63
2023-01-20T21:57:29.125Z,13.13
2023-01-20T21:59:56.467Z,14.63
2023-01-20T22:02:23.759Z,15.53
2023-01-20T22:04:50.969Z,16.00
2023-01-20T22:07:19.807Z,15.77
2023-01-20T22:09:46.812Z,15.27
2023-01-20T22:12:13.979Z,14.67
2023-01-20T22:14:41.433Z,14.90
2023-01-20T22:17:10.055Z,16.20
2023-01-20T22:19:37.418Z,15.53
2023-01-20T22:22:05.058Z,14.77
2023-01-20T22:24:33.399Z,15.10
2023-01-20T22:27:01.583Z,16.67
2023-01-20T22:29:28.663Z,14.40
2023-01-20T22:31:57.455Z,14.97
2023-01-20T22:34:24.629Z,14.00
2023-01-20T22:36:51.536Z,13.17
2023-01-20T22:39:18.557Z,14.43
2023-01-20T22:41:46.762Z,13.53
2023-01-20T22:44:13.998Z,13.70
2023-01-20T22:46:40.943Z,12.60
2023-01-20T22:49:08.865Z,13.50
2023-01-20T22:51:35.751Z,13.30
2023-01-20T22:54:02.797Z,13.20
2023-01-20T22:56:30.997Z,12.90
2023-01-20T22:59:00.228Z,12.27
2023-01-20T23:01:29.607Z,12.07
2023-01-20T23:03:58.027Z,11.73
2023-01-20T23:06:26.724Z,12.07
2023-01-20T23:08:53.922Z,12.73
2023-01-20T23:11:23.084Z,12.20
2023-01-20T23:13:50.261Z,13.30
2023-01-20T23:16:22.134Z,13.40
2023-01-20T23:18:49.626Z,12.93
2023-01-20T23:21:16.667Z,12.67
2023-01-20T23:23:43.773Z,12.90
2023-01-20T23:26:14.228Z,13.73
2023-01-20T23:28:41.881Z,12.87
2023-01-20T23:31:10.865Z,12.87
2023-01-20T23:33:40.840Z,12.77
2023-01-20T23:36:23.863Z,12.57
2023-01-20T23:38:57.969Z,12.87
2023-01-20T23:41:25.501Z,13.23
2023-01-20T23:43:52.774Z,12.17
2023-01-20T23:46:19.748Z,12.50
2023-01-20T23:48:48.066Z,12.47
2023-01-20T23:51:15.336Z,12.03
2023-01-20T23:53:42.512Z,12.27
2023-01-20T23:56:12.822Z,13.00
2023-01-20T23:58:40.163Z,13.03
